Time;durP1;ratioP1;P1;durP2;ratioP2;P2;SDS_P1;SDS_P2;PMS_P1;PMS_P2;Temp;Humidity;BMP_temperature;BMP_pressure;BME280_temperature;BME280_humidity;BME280_pressure;Samples;Min_cycle;Max_cycle;Signal;HPM_P1;HPM_P2
2022/12/16 00:01:12;;;;;;;;;44.75;36.25;;;;;3.75;52.99;100437.16;5042825;28;45398;-62
2022/12/16 00:03:38;;;;;;;;;56.50;37.25;;;;;3.98;53.45;100475.25;5042531;28;45304;-60
2022/12/16 00:06:04;;;;;;;;;65.75;49.50;;;;;3.98;53.32;100479.66;5036751;28;45548;-62
2022/12/16 00:08:36;;;;;;;;;38.75;32.75;;;;;4.00;52.94;100483.25;5036448;28;45481;-62
2022/12/16 00:11:02;;;;;;;;;38.25;33.75;;;;;3.99;53.43;100485.00;5041183;28;45975;-60
2022/12/16 00:13:29;;;;;;;;;39.00;29.50;;;;;3.99;53.62;100492.94;5046784;28;45497;-60
2022/12/16 00:15:55;;;;;;;;;38.25;33.75;;;;;3.98;53.57;100492.88;5048177;28;45412;-62
2022/12/16 00:18:20;;;;;;;;;59.75;40.25;;;;;4.02;53.44;100494.81;5052897;28;45401;-62
2022/12/16 00:20:51;;;;;;;;;45.50;38.00;;;;;4.02;53.38;100495.72;5043262;28;46061;-61
2022/12/16 00:23:17;;;;;;;;;49.50;40.00;;;;;4.06;53.53;100504.72;5038241;28;45442;-59
2022/12/16 00:25:44;;;;;;;;;56.25;41.25;;;;;4.01;54.34;100499.19;5049990;28;45457;-62
2022/12/16 00:28:11;;;;;;;;;49.75;39.25;;;;;4.01;54.33;100512.41;5043864;28;46265;-59
2022/12/16 00:30:36;;;;;;;;;70.00;54.25;;;;;3.88;54.52;100487.13;5042522;28;45462;-60
2022/12/16 00:33:02;;;;;;;;;49.75;39.00;;;;;3.99;54.36;100503.50;5045168;28;44899;-60
2022/12/16 00:35:29;;;;;;;;;50.25;42.75;;;;;3.84;54.04;100471.03;5058238;28;45471;-62
2022/12/16 00:37:54;;;;;;;;;66.50;48.50;;;;;4.06;53.60;100516.19;5044333;28;45419;-61
2022/12/16 00:40:20;;;;;;;;;67.50;49.25;;;;;3.97;53.96;100498.97;5037603;28;46382;-61
2022/12/16 00:42:45;;;;;;;;;69.25;47.75;;;;;4.02;54.42;100518.59;5044158;28;45407;-61
2022/12/16 00:45:10;;;;;;;;;50.00;41.75;;;;;4.05;54.19;100524.03;5034783;28;46241;-61
2022/12/16 00:47:36;;;;;;;;;48.50;37.50;;;;;4.06;53.42;100518.84;5046273;28;45429;-61
2022/12/16 00:50:01;;;;;;;;;51.50;40.50;;;;;4.04;54.03;100512.56;5035227;28;46008;-62
2022/12/16 00:52:26;;;;;;;;;59.00;43.00;;;;;4.03;54.37;100516.03;5040006;28;45623;-61
2022/12/16 00:54:52;;;;;;;;;39.25;38.00;;;;;4.05;53.88;100514.38;5054304;28;45799;-62
2022/12/16 00:57:17;;;;;;;;;44.00;37.50;;;;;4.04;53.50;100524.88;5038965;28;47434;-61
2022/12/16 00:59:42;;;;;;;;;45.50;37.75;;;;;4.02;53.82;100537.09;5044759;28;46087;-62
2022/12/16 01:02:09;;;;;;;;;42.00;37.75;;;;;4.00;54.00;100528.19;5050456;28;45308;-61
2022/12/16 01:04:35;;;;;;;;;51.00;36.25;;;;;4.01;53.96;100536.22;5037821;28;45485;-61
2022/12/16 01:07:00;;;;;;;;;37.25;34.00;;;;;3.91;53.87;100520.72;5047972;28;45307;-62
2022/12/16 01:09:26;;;;;;;;;40.50;37.50;;;;;3.82;54.06;100515.88;5034038;28;45992;-61
2022/12/16 01:11:51;;;;;;;;;50.00;38.00;;;;;3.88;54.18;100526.75;5044742;28;45321;-61
2022/12/16 01:14:16;;;;;;;;;39.75;35.00;;;;;3.95;54.48;100535.00;5050333;28;45434;-61
2022/12/16 01:16:42;;;;;;;;;41.00;31.75;;;;;3.87;54.44;100530.22;5033447;28;45474;-61
2022/12/16 01:19:07;;;;;;;;;44.75;33.75;;;;;3.90;54.68;100544.44;5044904;28;45409;-60
2022/12/16 01:21:32;;;;;;;;;37.25;33.25;;;;;3.86;54.58;100541.66;5049766;28;45385;-60
2022/12/16 01:23:58;;;;;;;;;40.00;32.50;;;;;3.74;54.34;100527.81;5039836;28;45646;-59
2022/12/16 01:26:23;;;;;;;;;51.75;37.75;;;;;3.78;54.57;100537.72;5048055;28;45410;-63
2022/12/16 01:28:49;;;;;;;;;40.25;28.75;;;;;3.86;54.57;100559.22;5040764;28;46560;-60
2022/12/16 01:31:17;;;;;;;;;40.75;34.25;;;;;3.56;54.64;100508.38;5052211;28;45318;-59
2022/12/16 01:33:43;;;;;;;;;41.75;38.00;;;;;3.91;55.13;100567.38;5039421;28;45486;-59
2022/12/16 01:36:08;;;;;;;;;40.50;33.50;;;;;3.79;55.07;100555.34;5054079;28;46803;-59
2022/12/16 01:38:35;;;;;;;;;42.00;34.75;;;;;3.92;54.75;100574.50;5052242;28;45339;-60
2022/12/16 01:41:01;;;;;;;;;44.25;37.75;;;;;3.78;55.06;100560.56;5035921;28;46159;-60
2022/12/16 01:43:33;;;;;;;;;43.50;35.50;;;;;3.87;54.86;100583.06;5045315;28;45365;-60
2022/12/16 01:46:04;;;;;;;;;34.00;34.00;;;;;3.89;55.03;100583.16;5046478;28;45379;-60
2022/12/16 01:48:33;;;;;;;;;45.00;38.25;;;;;3.72;55.00;100555.00;5034152;28;45571;-59
2022/12/16 01:51:06;;;;;;;;;38.50;34.00;;;;;3.88;55.06;100587.53;5045086;28;45654;-60
2022/12/16 01:53:34;;;;;;;;;44.25;36.75;;;;;3.82;55.03;100584.59;5031432;28;45458;-60
2022/12/16 01:56:00;;;;;;;;;36.00;29.25;;;;;3.82;55.15;100586.34;5060417;28;45409;-61
2022/12/16 01:58:30;;;;;;;;;43.75;36.50;;;;;3.91;55.37;100601.72;5050764;28;45243;-60
2022/12/16 02:00:56;;;;;;;;;42.25;38.00;;;;;3.88;55.30;100605.16;5061684;28;45044;-60
2022/12/16 02:03:23;;;;;;;;;35.00;31.50;;;;;3.81;55.10;100601.28;5069021;28;45155;-60
2022/12/16 02:05:51;;;;;;;;;45.50;37.75;;;;;3.83;55.36;100614.59;5051907;28;45462;-60
2022/12/16 02:08:18;;;;;;;;;38.00;36.00;;;;;3.88;55.17;100621.00;5060236;28;45271;-61
2022/12/16 02:10:44;;;;;;;;;39.75;33.75;;;;;3.90;55.04;100626.38;5052977;28;45218;-60
2022/12/16 02:13:32;;;;;;;;;46.00;34.00;;;;;3.80;55.82;100611.78;5049485;28;45142;-60
2022/12/16 02:16:06;;;;;;;;;41.25;38.00;;;;;3.91;55.47;100628.16;5048892;28;45477;-59
2022/12/16 02:18:56;;;;;;;;;43.50;38.25;;;;;3.90;55.24;100619.34;5040884;28;47215;-59
2022/12/16 02:21:53;;;;;;;;;34.00;29.25;;;;;3.92;55.86;100617.69;5045251;28;45399;-63
2022/12/16 02:24:36;;;;;;;;;48.00;29.75;;;;;3.95;55.82;100615.19;5043971;28;45408;-61
2022/12/16 02:27:37;;;;;;;;;43.50;38.50;;;;;3.91;55.89;100617.59;5035504;28;45347;-60
2022/12/16 02:30:09;;;;;;;;;46.75;36.25;;;;;3.97;55.46;100626.75;5047240;28;46670;-59
2022/12/16 02:32:53;;;;;;;;;35.75;34.00;;;;;3.97;55.37;100621.44;5043196;28;45444;-60
2022/12/16 02:35:28;;;;;;;;;39.25;33.00;;;;;3.97;55.82;100626.75;5048348;28;45902;-62
2022/12/16 02:38:04;;;;;;;;;44.00;33.50;;;;;3.98;55.86;100617.09;5048224;28;45457;-62
2022/12/16 02:40:51;;;;;;;;;35.00;31.25;;;;;3.99;55.59;100624.19;5040705;28;45553;-61
2022/12/16 02:43:23;;;;;;;;;43.75;35.50;;;;;3.09;55.46;100461.16;5037181;28;45453;-61
2022/12/16 02:45:49;;;;;;;;;53.50;37.00;;;;;3.72;55.71;100577.03;5041621;28;45469;-61
2022/12/16 02:48:14;;;;;;;;;42.50;30.25;;;;;4.00;55.65;100620.72;5044310;28;45296;-61
2022/12/16 02:50:46;;;;;;;;;43.75;39.00;;;;;4.01;55.76;100619.88;5040218;28;46337;-59
2022/12/16 02:53:12;;;;;;;;;43.00;34.50;;;;;3.99;55.60;100624.19;5049848;28;45715;-61
2022/12/16 02:55:59;;;;;;;;;40.75;33.75;;;;;3.96;55.86;100630.22;5041289;28;45307;-63
2022/12/16 02:58:56;;;;;;;;;44.25;32.25;;;;;3.97;56.05;100628.50;5038778;28;45454;-61
2022/12/16 03:01:36;;;;;;;;;47.00;37.75;;;;;3.96;55.87;100624.03;5048446;28;45539;-61
2022/12/16 03:04:08;;;;;;;;;44.00;34.75;;;;;3.95;55.78;100636.34;5038300;28;45339;-60
2022/12/16 03:06:37;;;;;;;;;39.50;32.50;;;;;3.90;55.88;100629.00;5037503;28;45463;-60
2022/12/16 03:09:08;;;;;;;;;45.75;39.00;;;;;3.93;56.05;100637.09;5051863;28;45465;-60
2022/12/16 03:11:35;;;;;;;;;35.25;29.75;;;;;3.92;55.63;100646.75;5037460;28;46340;-61
2022/12/16 03:14:05;;;;;;;;;35.50;34.50;;;;;3.84;55.81;100622.59;5047196;28;45436;-62
2022/12/16 03:16:33;;;;;;;;;43.25;35.25;;;;;3.93;55.76;100647.69;5044763;28;45513;-59
2022/12/16 03:19:01;;;;;;;;;52.00;37.00;;;;;3.92;56.18;100638.81;5037600;28;45543;-61
2022/12/16 03:21:38;;;;;;;;;38.25;32.00;;;;;3.96;55.77;100647.81;5050275;28;45389;-59
2022/12/16 03:24:09;;;;;;;;;56.00;40.00;;;;;3.90;55.74;100635.19;5036967;28;45391;-59
2022/12/16 03:26:44;;;;;;;;;34.25;30.00;;;;;3.93;55.84;100623.91;5037564;28;45373;-61
2022/12/16 03:29:15;;;;;;;;;35.00;30.00;;;;;3.98;55.86;100646.19;5039652;28;45501;-59
2022/12/16 03:31:50;;;;;;;;;46.25;37.25;;;;;3.99;55.35;100640.03;5041172;28;45509;-60
2022/12/16 03:34:30;;;;;;;;;42.75;35.50;;;;;3.99;55.67;100645.31;5035821;28;45451;-64
2022/12/16 03:37:01;;;;;;;;;43.25;34.75;;;;;3.94;55.96;100642.44;5036037;28;45279;-60
2022/12/16 03:39:28;;;;;;;;;30.75;26.75;;;;;3.84;56.06;100626.94;5039448;28;45421;-62
2022/12/16 03:41:55;;;;;;;;;42.25;33.25;;;;;4.01;55.70;100656.88;5043854;28;45432;-60
2022/12/16 03:44:21;;;;;;;;;48.25;32.25;;;;;3.99;55.63;100655.91;5034709;28;45364;-60
2022/12/16 03:46:47;;;;;;;;;53.00;43.50;;;;;3.99;55.44;100655.91;5034526;28;45303;-62
2022/12/16 03:49:14;;;;;;;;;47.50;38.75;;;;;3.87;55.36;100641.22;5043720;28;45385;-60
2022/12/16 03:51:39;;;;;;;;;57.00;43.00;;;;;3.81;55.57;100650.56;5040431;28;46271;-61
2022/12/16 03:54:05;;;;;;;;;53.00;41.00;;;;;3.89;55.96;100662.44;5042330;28;45407;-60
2022/12/16 03:56:31;;;;;;;;;43.75;38.00;;;;;3.82;55.93;100671.78;5040569;28;45598;-60
2022/12/16 03:58:57;;;;;;;;;54.25;41.50;;;;;3.78;56.05;100669.84;5043718;28;45556;-60
2022/12/16 04:01:23;;;;;;;;;48.75;39.25;;;;;3.76;56.02;100675.84;5037296;28;46211;-58
2022/12/16 04:03:49;;;;;;;;;43.75;39.75;;;;;3.73;56.26;100671.34;5040231;28;45654;-59
2022/12/16 04:06:17;;;;;;;;;52.25;39.00;;;;;3.68;56.18;100673.72;5041256;28;45682;-60
2022/12/16 04:08:47;;;;;;;;;46.00;38.00;;;;;3.31;56.26;100621.56;5041829;28;45436;-61
2022/12/16 04:25:16;;;;;;;;;45.50;37.00;;;;;3.56;56.62;100696.84;5052810;28;45102;-61
2022/12/16 04:27:45;;;;;;;;;44.50;37.50;;;;;3.55;57.28;100702.03;5052676;28;44879;-59
2022/12/16 04:30:18;;;;;;;;;44.75;33.50;;;;;3.56;57.34;100703.84;5062770;28;44973;-60
